sensor_id;sensor_type;location;lat;lon;timestamp;P1;durP1;ratioP1;P2;durP2;ratioP2
17207;SDS011;8720;48.488;9.202;2022-10-16T00:01:18;1.63;;;0.93;;
17207;SDS011;8720;48.488;9.202;2022-10-16T00:03:49;1.10;;;0.90;;
17207;SDS011;8720;48.488;9.202;2022-10-16T00:06:18;3.20;;;1.20;;
17207;SDS011;8720;48.488;9.202;2022-10-16T00:08:47;1.93;;;1.00;;
17207;SDS011;8720;48.488;9.202;2022-10-16T00:11:16;1.77;;;1.10;;
17207;SDS011;8720;48.488;9.202;2022-10-16T00:13:46;1.70;;;1.10;;
17207;SDS011;8720;48.488;9.202;2022-10-16T00:16:18;1.60;;;1.10;;
17207;SDS011;8720;48.488;9.202;2022-10-16T00:18:46;1.30;;;1.10;;
17207;SDS011;8720;48.488;9.202;2022-10-16T00:21:15;1.93;;;1.00;;
17207;SDS011;8720;48.488;9.202;2022-10-16T00:23:45;2.10;;;1.13;;
17207;SDS011;8720;48.488;9.202;2022-10-16T00:26:13;1.47;;;1.20;;
17207;SDS011;8720;48.488;9.202;2022-10-16T00:28:46;1.23;;;1.00;;
17207;SDS011;8720;48.488;9.202;2022-10-16T00:31:14;1.00;;;0.80;;
17207;SDS011;8720;48.488;9.202;2022-10-16T00:33:43;1.40;;;1.10;;
17207;SDS011;8720;48.488;9.202;2022-10-16T00:36:11;1.20;;;1.00;;
17207;SDS011;8720;48.488;9.202;2022-10-16T00:38:41;2.87;;;1.00;;
17207;SDS011;8720;48.488;9.202;2022-10-16T00:41:11;1.13;;;0.97;;
17207;SDS011;8720;48.488;9.202;2022-10-16T00:43:41;1.30;;;1.00;;
17207;SDS011;8720;48.488;9.202;2022-10-16T00:46:17;2.17;;;1.47;;
17207;SDS011;8720;48.488;9.202;2022-10-16T00:48:50;4.07;;;1.20;;
17207;SDS011;8720;48.488;9.202;2022-10-16T00:51:23;1.50;;;1.03;;
17207;SDS011;8720;48.488;9.202;2022-10-16T00:53:56;3.23;;;1.17;;
17207;SDS011;8720;48.488;9.202;2022-10-16T00:56:25;2.03;;;1.07;;
17207;SDS011;8720;48.488;9.202;2022-10-16T00:58:52;1.70;;;1.20;;
17207;SDS011;8720;48.488;9.202;2022-10-16T01:01:21;2.23;;;1.00;;
17207;SDS011;8720;48.488;9.202;2022-10-16T01:03:51;2.70;;;1.37;;
17207;SDS011;8720;48.488;9.202;2022-10-16T01:06:20;1.67;;;0.93;;
17207;SDS011;8720;48.488;9.202;2022-10-16T01:08:54;3.83;;;1.10;;
17207;SDS011;8720;48.488;9.202;2022-10-16T01:11:38;1.60;;;1.10;;
17207;SDS011;8720;48.488;9.202;2022-10-16T01:14:17;4.30;;;1.20;;
17207;SDS011;8720;48.488;9.202;2022-10-16T01:16:55;1.77;;;1.10;;
17207;SDS011;8720;48.488;9.202;2022-10-16T01:19:36;2.50;;;1.00;;
17207;SDS011;8720;48.488;9.202;2022-10-16T01:22:30;2.70;;;1.13;;
17207;SDS011;8720;48.488;9.202;2022-10-16T01:25:09;1.53;;;1.10;;
17207;SDS011;8720;48.488;9.202;2022-10-16T01:27:49;1.77;;;0.90;;
17207;SDS011;8720;48.488;9.202;2022-10-16T01:30:18;3.00;;;1.10;;
17207;SDS011;8720;48.488;9.202;2022-10-16T01:32:52;1.30;;;1.10;;
17207;SDS011;8720;48.488;9.202;2022-10-16T01:35:27;4.50;;;1.53;;
17207;SDS011;8720;48.488;9.202;2022-10-16T01:38:00;1.97;;;1.00;;
17207;SDS011;8720;48.488;9.202;2022-10-16T01:40:34;2.40;;;1.00;;
17207;SDS011;8720;48.488;9.202;2022-10-16T01:43:06;1.20;;;1.00;;
17207;SDS011;8720;48.488;9.202;2022-10-16T01:45:40;1.53;;;0.90;;
17207;SDS011;8720;48.488;9.202;2022-10-16T01:48:11;1.20;;;1.00;;
17207;SDS011;8720;48.488;9.202;2022-10-16T01:50:43;1.90;;;1.37;;
17207;SDS011;8720;48.488;9.202;2022-10-16T01:53:20;1.53;;;1.10;;
17207;SDS011;8720;48.488;9.202;2022-10-16T01:55:51;1.53;;;1.07;;
17207;SDS011;8720;48.488;9.202;2022-10-16T01:58:23;1.83;;;1.33;;
17207;SDS011;8720;48.488;9.202;2022-10-16T02:06:02;1.60;;;1.30;;
17207;SDS011;8720;48.488;9.202;2022-10-16T02:08:30;1.20;;;1.10;;
17207;SDS011;8720;48.488;9.202;2022-10-16T02:10:58;1.87;;;1.10;;
17207;SDS011;8720;48.488;9.202;2022-10-16T02:13:29;2.00;;;1.03;;
17207;SDS011;8720;48.488;9.202;2022-10-16T02:16:04;2.40;;;1.33;;
17207;SDS011;8720;48.488;9.202;2022-10-16T02:18:32;2.27;;;1.10;;
17207;SDS011;8720;48.488;9.202;2022-10-16T02:21:00;2.70;;;1.20;;
17207;SDS011;8720;48.488;9.202;2022-10-16T02:23:41;1.33;;;0.93;;
17207;SDS011;8720;48.488;9.202;2022-10-16T02:26:19;1.40;;;1.10;;
17207;SDS011;8720;48.488;9.202;2022-10-16T02:28:56;2.43;;;1.20;;
17207;SDS011;8720;48.488;9.202;2022-10-16T02:31:31;1.57;;;1.30;;
17207;SDS011;8720;48.488;9.202;2022-10-16T02:34:04;1.83;;;1.07;;
17207;SDS011;8720;48.488;9.202;2022-10-16T02:36:35;3.60;;;1.40;;
17207;SDS011;8720;48.488;9.202;2022-10-16T02:39:05;1.57;;;1.10;;
17207;SDS011;8720;48.488;9.202;2022-10-16T02:41:34;1.87;;;1.37;;
17207;SDS011;8720;48.488;9.202;2022-10-16T02:44:03;1.60;;;1.50;;
17207;SDS011;8720;48.488;9.202;2022-10-16T02:46:30;2.07;;;1.43;;
17207;SDS011;8720;48.488;9.202;2022-10-16T02:48:57;4.17;;;2.00;;
17207;SDS011;8720;48.488;9.202;2022-10-16T02:51:24;6.00;;;1.60;;
17207;SDS011;8720;48.488;9.202;2022-10-16T02:53:51;3.80;;;1.87;;
17207;SDS011;8720;48.488;9.202;2022-10-16T02:56:19;4.07;;;1.30;;
17207;SDS011;8720;48.488;9.202;2022-10-16T02:58:46;2.50;;;1.60;;
17207;SDS011;8720;48.488;9.202;2022-10-16T03:01:15;2.90;;;1.40;;
17207;SDS011;8720;48.488;9.202;2022-10-16T03:03:42;2.80;;;1.60;;
17207;SDS011;8720;48.488;9.202;2022-10-16T03:06:09;3.37;;;1.40;;
17207;SDS011;8720;48.488;9.202;2022-10-16T03:08:36;2.73;;;1.30;;
17207;SDS011;8720;48.488;9.202;2022-10-16T03:11:03;2.63;;;1.63;;
17207;SDS011;8720;48.488;9.202;2022-10-16T03:13:31;3.53;;;1.83;;
17207;SDS011;8720;48.488;9.202;2022-10-16T03:15:58;6.93;;;1.70;;
17207;SDS011;8720;48.488;9.202;2022-10-16T03:18:26;3.00;;;2.43;;
17207;SDS011;8720;48.488;9.202;2022-10-16T03:20:54;1.90;;;1.80;;
17207;SDS011;8720;48.488;9.202;2022-10-16T03:23:21;4.37;;;1.43;;
17207;SDS011;8720;48.488;9.202;2022-10-16T03:25:48;1.90;;;1.60;;
17207;SDS011;8720;48.488;9.202;2022-10-16T03:28:15;2.50;;;1.60;;
17207;SDS011;8720;48.488;9.202;2022-10-16T03:30:42;4.30;;;1.70;;
17207;SDS011;8720;48.488;9.202;2022-10-16T03:33:10;1.63;;;1.30;;
17207;SDS011;8720;48.488;9.202;2022-10-16T03:35:38;4.13;;;1.40;;
17207;SDS011;8720;48.488;9.202;2022-10-16T03:38:05;2.57;;;1.57;;
17207;SDS011;8720;48.488;9.202;2022-10-16T03:40:33;2.60;;;1.97;;
17207;SDS011;8720;48.488;9.202;2022-10-16T03:43:00;2.37;;;2.07;;
17207;SDS011;8720;48.488;9.202;2022-10-16T03:45:27;2.70;;;1.50;;
17207;SDS011;8720;48.488;9.202;2022-10-16T03:47:54;2.13;;;1.87;;
17207;SDS011;8720;48.488;9.202;2022-10-16T03:50:21;2.60;;;2.40;;
17207;SDS011;8720;48.488;9.202;2022-10-16T03:52:50;5.80;;;2.73;;
17207;SDS011;8720;48.488;9.202;2022-10-16T03:55:17;4.67;;;3.53;;
17207;SDS011;8720;48.488;9.202;2022-10-16T03:57:44;6.50;;;2.67;;
17207;SDS011;8720;48.488;9.202;2022-10-16T04:00:12;3.60;;;2.60;;
17207;SDS011;8720;48.488;9.202;2022-10-16T04:02:39;1.90;;;1.80;;
17207;SDS011;8720;48.488;9.202;2022-10-16T04:05:07;2.70;;;1.70;;
17207;SDS011;8720;48.488;9.202;2022-10-16T04:07:34;2.20;;;1.80;;
17207;SDS011;8720;48.488;9.202;2022-10-16T04:10:04;1.90;;;1.67;;
17207;SDS011;8720;48.488;9.202;2022-10-16T04:12:32;4.53;;;1.60;;
17207;SDS011;8720;48.488;9.202;2022-10-16T04:14:59;2.97;;;1.73;;
17207;SDS011;8720;48.488;9.202;2022-10-16T04:17:27;1.77;;;1.60;;
17207;SDS011;8720;48.488;9.202;2022-10-16T04:19:54;2.17;;;1.80;;
17207;SDS011;8720;48.488;9.202;2022-10-16T04:22:21;2.60;;;1.80;;
17207;SDS011;8720;48.488;9.202;2022-10-16T04:24:48;2.07;;;1.63;;
17207;SDS011;8720;48.488;9.202;2022-10-16T04:27:17;2.67;;;2.00;;
17207;SDS011;8720;48.488;9.202;2022-10-16T04:29:44;1.70;;;1.50;;
17207;SDS011;8720;48.488;9.202;2022-10-16T04:32:11;1.60;;;1.13;;
17207;SDS011;8720;48.488;9.202;2022-10-16T04:34:39;1.87;;;1.30;;
17207;SDS011;8720;48.488;9.202;2022-10-16T04:37:06;3.63;;;1.50;;
17207;SDS011;8720;48.488;9.202;2022-10-16T04:39:33;3.43;;;1.63;;
17207;SDS011;8720;48.488;9.202;2022-10-16T04:42:00;1.70;;;1.57;;
17207;SDS011;8720;48.488;9.202;2022-10-16T04:44:29;2.47;;;1.90;;
17207;SDS011;8720;48.488;9.202;2022-10-16T04:46:56;1.50;;;1.40;;
17207;SDS011;8720;48.488;9.202;2022-10-16T04:49:23;2.03;;;1.50;;
17207;SDS011;8720;48.488;9.202;2022-10-16T04:51:51;6.20;;;1.80;;
17207;SDS011;8720;48.488;9.202;2022-10-16T04:54:18;1.60;;;1.50;;
17207;SDS011;8720;48.488;9.202;2022-10-16T04:56:45;1.87;;;1.60;;
17207;SDS011;8720;48.488;9.202;2022-10-16T04:59:13;2.40;;;1.40;;
17207;SDS011;8720;48.488;9.202;2022-10-16T05:01:42;1.63;;;1.53;;
17207;SDS011;8720;48.488;9.202;2022-10-16T05:04:09;2.13;;;1.50;;
17207;SDS011;8720;48.488;9.202;2022-10-16T05:06:37;1.57;;;1.27;;
17207;SDS011;8720;48.488;9.202;2022-10-16T05:09:05;1.50;;;1.30;;
17207;SDS011;8720;48.488;9.202;2022-10-16T05:11:32;2.23;;;2.03;;
17207;SDS011;8720;48.488;9.202;2022-10-16T05:14:00;1.63;;;1.40;;
17207;SDS011;8720;48.488;9.202;2022-10-16T05:16:27;2.33;;;1.63;;
17207;SDS011;8720;48.488;9.202;2022-10-16T05:18:57;2.10;;;1.53;;
17207;SDS011;8720;48.488;9.202;2022-10-16T05:21:24;3.03;;;1.97;;
17207;SDS011;8720;48.488;9.202;2022-10-16T05:23:52;2.10;;;1.90;;
17207;SDS011;8720;48.488;9.202;2022-10-16T05:26:20;2.83;;;1.40;;
17207;SDS011;8720;48.488;9.202;2022-10-16T05:28:48;4.50;;;1.50;;
17207;SDS011;8720;48.488;9.202;2022-10-16T05:31:16;3.33;;;1.70;;
17207;SDS011;8720;48.488;9.202;2022-10-16T05:33:43;4.57;;;1.63;;
17207;SDS011;8720;48.488;9.202;2022-10-16T05:36:12;2.90;;;2.10;;
17207;SDS011;8720;48.488;9.202;2022-10-16T05:38:39;2.80;;;2.03;;
17207;SDS011;8720;48.488;9.202;2022-10-16T05:41:06;2.70;;;1.80;;
17207;SDS011;8720;48.488;9.202;2022-10-16T05:43:33;3.40;;;2.10;;
17207;SDS011;8720;48.488;9.202;2022-10-16T05:46:01;2.50;;;2.13;;
17207;SDS011;8720;48.488;9.202;2022-10-16T05:48:32;2.87;;;2.40;;
17207;SDS011;8720;48.488;9.202;2022-10-16T05:51:00;2.47;;;2.27;;
17207;SDS011;8720;48.488;9.202;2022-10-16T05:53:31;2.90;;;2.50;;
17207;SDS011;8720;48.488;9.202;2022-10-16T05:56:01;2.63;;;1.90;;
17207;SDS011;8720;48.488;9.202;2022-10-16T05:58:29;3.33;;;1.90;;
17207;SDS011;8720;48.488;9.202;2022-10-16T06:00:59;4.00;;;1.90;;
17207;SDS011;8720;48.488;9.202;2022-10-16T06:03:29;2.00;;;1.90;;
17207;SDS011;8720;48.488;9.202;2022-10-16T06:05:56;2.00;;;1.80;;
17207;SDS011;8720;48.488;9.202;2022-10-16T06:08:24;5.43;;;2.27;;
17207;SDS011;8720;48.488;9.202;2022-10-16T06:11:01;2.73;;;1.80;;
17207;SDS011;8720;48.488;9.202;2022-10-16T06:13:29;2.17;;;1.97;;
17207;SDS011;8720;48.488;9.202;2022-10-16T06:15:57;3.83;;;2.63;;
17207;SDS011;8720;48.488;9.202;2022-10-16T06:18:26;1.83;;;1.73;;
17207;SDS011;8720;48.488;9.202;2022-10-16T06:20:54;3.10;;;1.93;;
17207;SDS011;8720;48.488;9.202;2022-10-16T06:23:23;4.03;;;2.27;;
17207;SDS011;8720;48.488;9.202;2022-10-16T06:25:51;2.80;;;1.93;;
17207;SDS011;8720;48.488;9.202;2022-10-16T06:28:22;5.17;;;2.40;;
17207;SDS011;8720;48.488;9.202;2022-10-16T06:30:49;3.97;;;2.37;;
17207;SDS011;8720;48.488;9.202;2022-10-16T06:33:26;3.13;;;2.70;;
17207;SDS011;8720;48.488;9.202;2022-10-16T06:35:53;4.37;;;2.40;;
17207;SDS011;8720;48.488;9.202;2022-10-16T06:38:32;3.33;;;2.73;;
17207;SDS011;8720;48.488;9.202;2022-10-16T06:40:59;3.90;;;2.83;;
17207;SDS011;8720;48.488;9.202;2022-10-16T06:43:29;3.77;;;3.27;;
17207;SDS011;8720;48.488;9.202;2022-10-16T06:45:58;5.37;;;2.97;;
17207;SDS011;8720;48.488;9.202;2022-10-16T06:48:26;2.40;;;2.20;;
17207;SDS011;8720;48.488;9.202;2022-10-16T06:50:55;3.73;;;2.03;;
17207;SDS011;8720;48.488;9.202;2022-10-16T06:53:24;4.43;;;2.20;;
17207;SDS011;8720;48.488;9.202;2022-10-16T06:55:52;2.80;;;2.60;;
17207;SDS011;8720;48.488;9.202;2022-10-16T06:58:20;3.27;;;2.37;;
17207;SDS011;8720;48.488;9.202;2022-10-16T07:00:49;3.23;;;2.20;;
17207;SDS011;8720;48.488;9.202;2022-10-16T07:03:22;3.17;;;2.30;;
17207;SDS011;8720;48.488;9.202;2022-10-16T07:05:49;2.13;;;1.70;;
17207;SDS011;8720;48.488;9.202;2022-10-16T07:08:16;4.83;;;1.83;;
17207;SDS011;8720;48.488;9.202;2022-10-16T07:10:45;2.27;;;1.60;;
17207;SDS011;8720;48.488;9.202;2022-10-16T07:13:12;2.33;;;2.13;;
17207;SDS011;8720;48.488;9.202;2022-10-16T07:15:41;6.37;;;2.27;;
17207;SDS011;8720;48.488;9.202;2022-10-16T07:18:10;4.53;;;1.93;;
17207;SDS011;8720;48.488;9.202;2022-10-16T07:20:37;3.63;;;2.80;;
17207;SDS011;8720;48.488;9.202;2022-10-16T07:23:04;3.47;;;2.20;;
17207;SDS011;8720;48.488;9.202;2022-10-16T07:25:32;3.43;;;2.20;;
17207;SDS011;8720;48.488;9.202;2022-10-16T07:27:59;2.50;;;2.30;;
17207;SDS011;8720;48.488;9.202;2022-10-16T07:30:26;2.40;;;2.20;;
17207;SDS011;8720;48.488;9.202;2022-10-16T07:32:53;3.23;;;2.17;;
17207;SDS011;8720;48.488;9.202;2022-10-16T07:35:22;3.37;;;2.60;;
17207;SDS011;8720;48.488;9.202;2022-10-16T07:37:49;3.20;;;2.17;;
17207;SDS011;8720;48.488;9.202;2022-10-16T07:40:17;3.47;;;2.03;;
17207;SDS011;8720;48.488;9.202;2022-10-16T07:42:44;3.50;;;2.00;;
17207;SDS011;8720;48.488;9.202;2022-10-16T07:45:11;3.60;;;2.20;;
17207;SDS011;8720;48.488;9.202;2022-10-16T07:47:38;3.00;;;2.07;;
17207;SDS011;8720;48.488;9.202;2022-10-16T07:50:06;2.00;;;1.80;;
17207;SDS011;8720;48.488;9.202;2022-10-16T07:52:35;3.20;;;1.90;;
17207;SDS011;8720;48.488;9.202;2022-10-16T07:55:03;2.23;;;1.93;;
17207;SDS011;8720;48.488;9.202;2022-10-16T07:57:31;4.10;;;1.83;;
17207;SDS011;8720;48.488;9.202;2022-10-16T07:59:58;2.07;;;1.87;;
17207;SDS011;8720;48.488;9.202;2022-10-16T08:02:26;2.47;;;1.80;;
17207;SDS011;8720;48.488;9.202;2022-10-16T08:04:53;2.10;;;1.90;;
17207;SDS011;8720;48.488;9.202;2022-10-16T08:07:20;1.67;;;1.57;;
17207;SDS011;8720;48.488;9.202;2022-10-16T08:09:50;1.93;;;1.73;;
17207;SDS011;8720;48.488;9.202;2022-10-16T08:12:17;5.30;;;1.77;;
17207;SDS011;8720;48.488;9.202;2022-10-16T08:14:44;2.43;;;1.53;;
17207;SDS011;8720;48.488;9.202;2022-10-16T08:17:13;2.07;;;1.70;;
17207;SDS011;8720;48.488;9.202;2022-10-16T08:19:43;3.47;;;1.50;;
17207;SDS011;8720;48.488;9.202;2022-10-16T08:22:11;3.97;;;1.80;;
17207;SDS011;8720;48.488;9.202;2022-10-16T08:24:38;1.87;;;1.77;;
17207;SDS011;8720;48.488;9.202;2022-10-16T08:27:07;3.40;;;2.20;;
17207;SDS011;8720;48.488;9.202;2022-10-16T08:29:35;3.30;;;1.97;;
17207;SDS011;8720;48.488;9.202;2022-10-16T08:32:03;3.07;;;2.10;;
17207;SDS011;8720;48.488;9.202;2022-10-16T08:34:31;3.20;;;2.00;;
17207;SDS011;8720;48.488;9.202;2022-10-16T08:36:59;4.60;;;1.80;;
17207;SDS011;8720;48.488;9.202;2022-10-16T08:39:26;3.07;;;1.90;;
17207;SDS011;8720;48.488;9.202;2022-10-16T08:42:04;3.00;;;2.23;;
17207;SDS011;8720;48.488;9.202;2022-10-16T08:45:09;2.47;;;1.97;;
17207;SDS011;8720;48.488;9.202;2022-10-16T08:48:08;4.80;;;2.00;;
17207;SDS011;8720;48.488;9.202;2022-10-16T08:50:46;4.70;;;2.00;;
17207;SDS011;8720;48.488;9.202;2022-10-16T08:53:18;2.70;;;1.60;;
17207;SDS011;8720;48.488;9.202;2022-10-16T08:55:53;3.10;;;1.63;;
17207;SDS011;8720;48.488;9.202;2022-10-16T08:58:28;2.83;;;1.57;;
17207;SDS011;8720;48.488;9.202;2022-10-16T09:00:57;1.80;;;1.27;;
17207;SDS011;8720;48.488;9.202;2022-10-16T09:03:32;1.87;;;1.43;;
17207;SDS011;8720;48.488;9.202;2022-10-16T09:06:29;3.50;;;1.43;;
17207;SDS011;8720;48.488;9.202;2022-10-16T09:09:16;4.03;;;1.70;;
17207;SDS011;8720;48.488;9.202;2022-10-16T09:12:16;2.60;;;1.73;;
17207;SDS011;8720;48.488;9.202;2022-10-16T09:14:54;1.53;;;1.43;;
17207;SDS011;8720;48.488;9.202;2022-10-16T09:17:37;2.00;;;1.60;;
17207;SDS011;8720;48.488;9.202;2022-10-16T09:23:15;3.23;;;1.40;;
17207;SDS011;8720;48.488;9.202;2022-10-16T09:25:46;2.30;;;1.47;;
17207;SDS011;8720;48.488;9.202;2022-10-16T09:28:16;4.00;;;1.70;;
17207;SDS011;8720;48.488;9.202;2022-10-16T09:30:46;1.97;;;1.50;;
17207;SDS011;8720;48.488;9.202;2022-10-16T09:33:15;2.13;;;1.60;;
17207;SDS011;8720;48.488;9.202;2022-10-16T09:35:45;2.00;;;1.73;;
17207;SDS011;8720;48.488;9.202;2022-10-16T09:38:24;2.00;;;1.43;;
17207;SDS011;8720;48.488;9.202;2022-10-16T09:40:54;3.43;;;1.40;;
17207;SDS011;8720;48.488;9.202;2022-10-16T09:43:24;1.57;;;1.30;;
17207;SDS011;8720;48.488;9.202;2022-10-16T09:46:00;2.93;;;1.57;;
17207;SDS011;8720;48.488;9.202;2022-10-16T09:48:31;1.83;;;1.60;;
17207;SDS011;8720;48.488;9.202;2022-10-16T09:51:04;1.60;;;1.50;;
17207;SDS011;8720;48.488;9.202;2022-10-16T09:53:42;1.50;;;1.40;;
17207;SDS011;8720;48.488;9.202;2022-10-16T09:56:20;1.60;;;1.40;;
17207;SDS011;8720;48.488;9.202;2022-10-16T09:58:50;2.90;;;1.67;;
17207;SDS011;8720;48.488;9.202;2022-10-16T10:01:19;3.60;;;1.47;;
17207;SDS011;8720;48.488;9.202;2022-10-16T10:03:55;1.70;;;1.57;;
17207;SDS011;8720;48.488;9.202;2022-10-16T10:06:27;1.30;;;1.20;;
17207;SDS011;8720;48.488;9.202;2022-10-16T10:08:59;2.33;;;1.40;;
17207;SDS011;8720;48.488;9.202;2022-10-16T10:11:44;5.43;;;1.80;;
17207;SDS011;8720;48.488;9.202;2022-10-16T10:14:24;3.13;;;2.23;;
17207;SDS011;8720;48.488;9.202;2022-10-16T10:19:47;2.07;;;1.50;;
17207;SDS011;8720;48.488;9.202;2022-10-16T10:22:19;1.60;;;1.50;;
17207;SDS011;8720;48.488;9.202;2022-10-16T10:24:58;1.50;;;1.33;;
17207;SDS011;8720;48.488;9.202;2022-10-16T10:27:44;1.43;;;1.17;;
17207;SDS011;8720;48.488;9.202;2022-10-16T10:30:46;1.80;;;1.40;;
17207;SDS011;8720;48.488;9.202;2022-10-16T10:33:28;2.50;;;1.53;;
17207;SDS011;8720;48.488;9.202;2022-10-16T10:36:14;2.00;;;1.30;;
17207;SDS011;8720;48.488;9.202;2022-10-16T10:38:54;1.90;;;1.50;;
17207;SDS011;8720;48.488;9.202;2022-10-16T10:41:36;1.30;;;1.20;;
17207;SDS011;8720;48.488;9.202;2022-10-16T10:44:46;1.93;;;1.40;;
17207;SDS011;8720;48.488;9.202;2022-10-16T10:47:37;1.93;;;1.10;;
17207;SDS011;8720;48.488;9.202;2022-10-16T10:50:22;2.50;;;1.17;;
17207;SDS011;8720;48.488;9.202;2022-10-16T10:52:58;1.80;;;1.33;;
17207;SDS011;8720;48.488;9.202;2022-10-16T10:55:37;1.10;;;1.00;;
17207;SDS011;8720;48.488;9.202;2022-10-16T10:58:16;2.10;;;1.50;;
17207;SDS011;8720;48.488;9.202;2022-10-16T11:01:08;2.90;;;1.00;;
17207;SDS011;8720;48.488;9.202;2022-10-16T11:03:48;2.50;;;1.10;;
17207;SDS011;8720;48.488;9.202;2022-10-16T11:06:47;1.70;;;1.10;;
17207;SDS011;8720;48.488;9.202;2022-10-16T11:09:23;3.93;;;1.10;;
17207;SDS011;8720;48.488;9.202;2022-10-16T11:11:58;1.10;;;1.00;;
17207;SDS011;8720;48.488;9.202;2022-10-16T11:14:33;2.57;;;1.13;;
17207;SDS011;8720;48.488;9.202;2022-10-16T11:17:10;2.07;;;1.00;;
17207;SDS011;8720;48.488;9.202;2022-10-16T11:19:42;4.33;;;1.30;;
17207;SDS011;8720;48.488;9.202;2022-10-16T11:22:19;4.20;;;1.70;;
17207;SDS011;8720;48.488;9.202;2022-10-16T11:24:58;6.30;;;1.27;;
17207;SDS011;8720;48.488;9.202;2022-10-16T11:27:38;3.67;;;1.03;;
17207;SDS011;8720;48.488;9.202;2022-10-16T11:30:14;1.73;;;1.33;;
17207;SDS011;8720;48.488;9.202;2022-10-16T11:32:50;3.87;;;1.63;;
17207;SDS011;8720;48.488;9.202;2022-10-16T11:35:37;1.60;;;1.13;;
17207;SDS011;8720;48.488;9.202;2022-10-16T11:38:14;1.80;;;1.17;;
17207;SDS011;8720;48.488;9.202;2022-10-16T11:40:54;2.37;;;1.60;;
17207;SDS011;8720;48.488;9.202;2022-10-16T11:43:31;2.50;;;1.10;;
17207;SDS011;8720;48.488;9.202;2022-10-16T11:46:07;1.37;;;1.17;;
17207;SDS011;8720;48.488;9.202;2022-10-16T11:48:41;1.93;;;1.10;;
17207;SDS011;8720;48.488;9.202;2022-10-16T11:51:19;1.20;;;1.10;;
17207;SDS011;8720;48.488;9.202;2022-10-16T11:53:58;1.37;;;1.27;;
17207;SDS011;8720;48.488;9.202;2022-10-16T11:56:36;2.30;;;1.20;;
17207;SDS011;8720;48.488;9.202;2022-10-16T11:59:12;2.47;;;1.17;;
17207;SDS011;8720;48.488;9.202;2022-10-16T12:01:56;1.60;;;1.27;;
17207;SDS011;8720;48.488;9.202;2022-10-16T12:04:41;1.30;;;1.10;;
17207;SDS011;8720;48.488;9.202;2022-10-16T12:07:18;1.27;;;1.00;;
17207;SDS011;8720;48.488;9.202;2022-10-16T12:09:52;1.40;;;1.30;;
17207;SDS011;8720;48.488;9.202;2022-10-16T12:12:24;1.87;;;1.30;;
17207;SDS011;8720;48.488;9.202;2022-10-16T12:14:59;2.33;;;1.30;;
17207;SDS011;8720;48.488;9.202;2022-10-16T12:17:34;1.63;;;1.17;;
17207;SDS011;8720;48.488;9.202;2022-10-16T12:22:56;1.83;;;1.27;;
17207;SDS011;8720;48.488;9.202;2022-10-16T12:25:31;1.77;;;1.13;;
17207;SDS011;8720;48.488;9.202;2022-10-16T12:28:03;1.60;;;1.30;;
17207;SDS011;8720;48.488;9.202;2022-10-16T12:30:34;1.80;;;1.40;;
17207;SDS011;8720;48.488;9.202;2022-10-16T12:33:03;1.40;;;1.30;;
17207;SDS011;8720;48.488;9.202;2022-10-16T12:35:47;1.63;;;1.50;;
17207;SDS011;8720;48.488;9.202;2022-10-16T12:38:15;1.40;;;1.30;;
17207;SDS011;8720;48.488;9.202;2022-10-16T12:40:47;1.87;;;1.60;;
17207;SDS011;8720;48.488;9.202;2022-10-16T12:43:27;3.33;;;1.80;;
17207;SDS011;8720;48.488;9.202;2022-10-16T12:46:05;2.60;;;1.33;;
17207;SDS011;8720;48.488;9.202;2022-10-16T12:48:49;2.80;;;1.47;;
17207;SDS011;8720;48.488;9.202;2022-10-16T12:51:24;1.93;;;1.53;;
17207;SDS011;8720;48.488;9.202;2022-10-16T12:54:02;1.63;;;1.53;;
17207;SDS011;8720;48.488;9.202;2022-10-16T12:56:44;3.53;;;1.30;;
17207;SDS011;8720;48.488;9.202;2022-10-16T12:59:35;1.80;;;1.60;;
17207;SDS011;8720;48.488;9.202;2022-10-16T13:02:29;2.63;;;1.50;;
17207;SDS011;8720;48.488;9.202;2022-10-16T13:05:28;1.67;;;1.57;;
17207;SDS011;8720;48.488;9.202;2022-10-16T13:08:15;1.70;;;1.57;;
17207;SDS011;8720;48.488;9.202;2022-10-16T13:11:12;1.87;;;1.50;;
17207;SDS011;8720;48.488;9.202;2022-10-16T13:16:57;1.53;;;1.43;;
17207;SDS011;8720;48.488;9.202;2022-10-16T13:19:39;1.30;;;1.20;;
17207;SDS011;8720;48.488;9.202;2022-10-16T13:22:17;1.63;;;1.53;;
17207;SDS011;8720;48.488;9.202;2022-10-16T13:24:56;1.87;;;1.57;;
17207;SDS011;8720;48.488;9.202;2022-10-16T13:27:45;2.30;;;1.50;;
17207;SDS011;8720;48.488;9.202;2022-10-16T13:30:23;2.03;;;1.50;;
17207;SDS011;8720;48.488;9.202;2022-10-16T13:32:55;5.43;;;1.73;;
17207;SDS011;8720;48.488;9.202;2022-10-16T13:35:29;1.60;;;1.50;;
17207;SDS011;8720;48.488;9.202;2022-10-16T13:38:03;2.47;;;1.57;;
17207;SDS011;8720;48.488;9.202;2022-10-16T13:40:50;1.60;;;1.50;;
17207;SDS011;8720;48.488;9.202;2022-10-16T13:43:20;1.60;;;1.50;;
17207;SDS011;8720;48.488;9.202;2022-10-16T13:45:55;1.70;;;1.60;;
17207;SDS011;8720;48.488;9.202;2022-10-16T13:48:25;1.70;;;1.57;;
17207;SDS011;8720;48.488;9.202;2022-10-16T13:50:59;2.80;;;1.60;;
17207;SDS011;8720;48.488;9.202;2022-10-16T13:53:33;3.70;;;1.47;;
17207;SDS011;8720;48.488;9.202;2022-10-16T13:56:02;1.97;;;1.70;;
17207;SDS011;8720;48.488;9.202;2022-10-16T13:58:33;1.97;;;1.40;;
17207;SDS011;8720;48.488;9.202;2022-10-16T14:01:02;1.70;;;1.53;;
17207;SDS011;8720;48.488;9.202;2022-10-16T14:03:32;2.33;;;1.80;;
17207;SDS011;8720;48.488;9.202;2022-10-16T14:06:02;2.53;;;2.13;;
17207;SDS011;8720;48.488;9.202;2022-10-16T14:08:40;1.90;;;1.60;;
17207;SDS011;8720;48.488;9.202;2022-10-16T14:11:12;2.33;;;1.70;;
17207;SDS011;8720;48.488;9.202;2022-10-16T14:13:47;2.17;;;1.20;;
17207;SDS011;8720;48.488;9.202;2022-10-16T14:16:19;2.00;;;1.40;;
17207;SDS011;8720;48.488;9.202;2022-10-16T14:18:50;1.90;;;1.80;;
17207;SDS011;8720;48.488;9.202;2022-10-16T14:21:25;2.10;;;1.77;;
17207;SDS011;8720;48.488;9.202;2022-10-16T14:23:53;1.90;;;1.77;;
17207;SDS011;8720;48.488;9.202;2022-10-16T14:26:22;2.20;;;2.00;;
17207;SDS011;8720;48.488;9.202;2022-10-16T14:29:03;2.13;;;1.80;;
17207;SDS011;8720;48.488;9.202;2022-10-16T14:31:40;4.03;;;2.10;;
17207;SDS011;8720;48.488;9.202;2022-10-16T14:36:52;2.53;;;1.90;;
17207;SDS011;8720;48.488;9.202;2022-10-16T14:39:21;2.00;;;1.80;;
17207;SDS011;8720;48.488;9.202;2022-10-16T14:41:52;2.60;;;1.80;;
17207;SDS011;8720;48.488;9.202;2022-10-16T14:44:24;2.30;;;2.10;;
17207;SDS011;8720;48.488;9.202;2022-10-16T14:47:05;1.63;;;1.53;;
17207;SDS011;8720;48.488;9.202;2022-10-16T14:49:35;1.83;;;1.67;;
17207;SDS011;8720;48.488;9.202;2022-10-16T14:52:05;2.93;;;1.80;;
17207;SDS011;8720;48.488;9.202;2022-10-16T14:54:37;1.83;;;1.73;;
17207;SDS011;8720;48.488;9.202;2022-10-16T14:57:12;2.33;;;1.63;;
17207;SDS011;8720;48.488;9.202;2022-10-16T14:59:45;2.37;;;2.00;;
17207;SDS011;8720;48.488;9.202;2022-10-16T15:02:18;2.20;;;1.90;;
17207;SDS011;8720;48.488;9.202;2022-10-16T15:04:54;2.77;;;1.97;;
17207;SDS011;8720;48.488;9.202;2022-10-16T15:07:22;2.47;;;2.27;;
17207;SDS011;8720;48.488;9.202;2022-10-16T15:09:50;1.63;;;1.40;;
17207;SDS011;8720;48.488;9.202;2022-10-16T15:12:18;2.10;;;1.90;;
17207;SDS011;8720;48.488;9.202;2022-10-16T15:14:45;2.50;;;1.80;;
17207;SDS011;8720;48.488;9.202;2022-10-16T15:17:12;3.57;;;2.37;;
17207;SDS011;8720;48.488;9.202;2022-10-16T15:19:41;2.67;;;2.17;;
17207;SDS011;8720;48.488;9.202;2022-10-16T15:22:08;2.33;;;2.10;;
17207;SDS011;8720;48.488;9.202;2022-10-16T15:24:37;2.43;;;2.07;;
17207;SDS011;8720;48.488;9.202;2022-10-16T15:27:05;3.20;;;2.10;;
17207;SDS011;8720;48.488;9.202;2022-10-16T15:29:32;5.13;;;2.30;;
17207;SDS011;8720;48.488;9.202;2022-10-16T15:31:59;3.60;;;2.20;;
17207;SDS011;8720;48.488;9.202;2022-10-16T15:34:26;3.27;;;2.10;;
17207;SDS011;8720;48.488;9.202;2022-10-16T15:36:55;3.33;;;2.30;;
17207;SDS011;8720;48.488;9.202;2022-10-16T15:39:23;2.20;;;1.60;;
17207;SDS011;8720;48.488;9.202;2022-10-16T15:41:50;3.97;;;1.87;;
17207;SDS011;8720;48.488;9.202;2022-10-16T15:44:18;2.37;;;1.80;;
17207;SDS011;8720;48.488;9.202;2022-10-16T15:46:48;2.13;;;1.77;;
17207;SDS011;8720;48.488;9.202;2022-10-16T15:49:15;2.10;;;1.83;;
17207;SDS011;8720;48.488;9.202;2022-10-16T15:51:42;1.70;;;1.60;;